Satumimaru — JD3925 — position and weather

sailwx.info

Track history (hours):
 
Tides and Currents Weather Stations Pressure Air Temp Water Temp Dewpoint Dewpoint Depression Visibility Wind Speed Wind Dir Waves Ship Positions

Satumimaru

Last reported at 2018-Jul-10 06:43 UTC. Time now 2018-Jul-18 22:14 UTC.
Position N 34°42' E 134°28'.
Warning: this ship's position is 8 days out of date.

Length 82 m; draft 3.8 m.

Type: Cargo ship. MMSI: 431007046.

Date/timePositionNaut miles runAvg speedWind from/ knotsBaromVisibWave heightAir tempDewpointWater temp
2018-Jul-10 06:43N 34°42' E 134°28'512.1
2018-Jul-10 06:17N 34°44' E 134°34'4 0.2
2018-Jul-09 15:15N 34°41' E 134°37'1211.8
2018-Jul-09 14:13N 34°31' E 134°29'  
2018-Jul-07 08:28N 34°22' E 134°23'510.8
2018-Jul-07 08:00N 34°20' E 134°28'2111.3
2018-Jul-07 06:08N 34°06' E 134°47'211.1
2018-Jul-07 05:58N 34°05' E 134°49'811.3
2018-Jul-07 05:14N 33°58' E 134°55'311.3
2018-Jul-07 05:00N 33°56' E 134°57'611.4
2018-Jul-07 04:31N 33°52' E 135°01'227 8.8
2018-Jul-06 02:46N 34°56' E 139°25'2 8.1
2018-Jul-06 02:30N 34°57' E 139°27'5 8.7
2018-Jul-06 01:59N 34°60' E 139°31'510.0
2018-Jul-06 01:30N 35°03' E 139°36'510.7
2018-Jul-06 01:00N 35°07' E 139°41'510.6
2018-Jul-06 00:30N 35°11' E 139°45'510.1
2018-Jul-06 00:01N 35°16' E 139°46'611.2
2018-Jul-05 23:30N 35°20' E 139°42'2 3.7
2018-Jul-05 22:59N 35°22' E 139°41'0 0.1
2018-Jul-05 22:23N 35°22' E 139°41'0 0.0
2018-Jul-05 21:56N 35°22' E 139°41'0 0.0
2018-Jul-05 21:23N 35°22' E 139°41'0 0.0
2018-Jul-05 20:59N 35°22' E 139°41'0 0.0
2018-Jul-05 20:29N 35°22' E 139°41'0 0.0
2018-Jul-05 19:59N 35°22' E 139°41'0 0.0
2018-Jul-05 19:29N 35°22' E 139°41'0 0.0
2018-Jul-05 18:59N 35°22' E 139°41'0 0.0
2018-Jul-05 18:29N 35°22' E 139°41'0 0.0
2018-Jul-05 17:59N 35°22' E 139°41'0 0.1
2018-Jul-05 17:29N 35°22' E 139°41'0 0.0
2018-Jul-05 16:59N 35°22' E 139°41'0 0.0
2018-Jul-05 16:29N 35°22' E 139°41'0 0.0
2018-Jul-05 15:59N 35°22' E 139°41'0 0.0
2018-Jul-05 15:29N 35°22' E 139°41'0 0.0
2018-Jul-05 14:59N 35°22' E 139°41'0 0.0
2018-Jul-05 13:59N 35°22' E 139°41'0 0.0
2018-Jul-05 13:29N 35°22' E 139°41'0 0.0
2018-Jul-05 12:59N 35°22' E 139°41'0 0.0
2018-Jul-05 12:29N 35°22' E 139°41'0 0.0
2018-Jul-05 11:59N 35°22' E 139°41'0 0.0
2018-Jul-05 11:29N 35°22' E 139°41'0 0.0
2018-Jul-05 10:59N 35°22' E 139°41'0 0.0
2018-Jul-05 10:29N 35°22' E 139°41'0 0.0
2018-Jul-05 09:59N 35°22' E 139°41'0 0.0
2018-Jul-05 09:26N 35°22' E 139°41'0 0.0
2018-Jul-05 08:59N 35°22' E 139°41'0 0.0
2018-Jul-05 08:29N 35°22' E 139°41'0 0.0
2018-Jul-05 07:59N 35°22' E 139°41'0 0.0
2018-Jul-05 07:29N 35°22' E 139°41'0 0.0
2018-Jul-05 06:59N 35°22' E 139°41'0 0.0
2018-Jul-05 06:29N 35°22' E 139°41'0 0.0
2018-Jul-05 05:56N 35°22' E 139°41'0 0.0
2018-Jul-05 05:29N 35°22' E 139°41'0 0.0
2018-Jul-05 04:59N 35°22' E 139°41'0 0.0
2018-Jul-05 04:29N 35°22' E 139°41'0 0.2
2018-Jul-05 03:59N 35°22' E 139°41'4 8.0
2018-Jul-05 03:30N 35°25' E 139°42'4 8.9
2018-Jul-05 03:00N 35°30' E 139°44'1 2.1
2018-Jul-05 02:28N 35°31' E 139°44'0 0.0
2018-Jul-05 01:58N 35°31' E 139°44'0 0.0
2018-Jul-05 01:25N 35°31' E 139°44'0 0.0
2018-Jul-05 00:55N 35°31' E 139°44'0 0.0
2018-Jul-05 00:16N 35°31' E 139°44'0 0.0
2018-Jul-04 23:43N 35°31' E 139°44'0 0.0
2018-Jul-04 23:28N 35°31' E 139°44'0 0.1
2018-Jul-04 22:55N 35°31' E 139°44'2 4.0
2018-Jul-04 22:30N 35°29' E 139°43'3 5.6
2018-Jul-04 22:00N 35°28' E 139°40'1 1.9
2018-Jul-04 21:30N 35°28' E 139°39'0 0.0
2018-Jul-04 21:00N 35°28' E 139°39'0 0.0
2018-Jul-04 20:30N 35°28' E 139°39'0 0.0
2018-Jul-04 20:00N 35°28' E 139°39'0 0.0
2018-Jul-04 19:27N 35°28' E 139°39'0 0.0
2018-Jul-04 19:00N 35°28' E 139°39'0 0.0
2018-Jul-04 18:30N 35°28' E 139°39'0 0.0
2018-Jul-04 17:57N 35°28' E 139°39'0 0.0
2018-Jul-04 17:30N 35°28' E 139°39'0 0.0
2018-Jul-04 17:00N 35°28' E 139°39'0 0.0
2018-Jul-04 16:30N 35°28' E 139°39'0 0.0
2018-Jul-04 16:00N 35°28' E 139°39'0 0.0
2018-Jul-04 15:30N 35°28' E 139°39'0 0.0
2018-Jul-04 15:00N 35°28' E 139°39'0 0.0
2018-Jul-04 14:30N 35°28' E 139°39'0 0.0
2018-Jul-04 14:00N 35°28' E 139°39'0 0.0
2018-Jul-04 13:30N 35°28' E 139°39'0 0.0
2018-Jul-04 13:00N 35°28' E 139°39'0 0.0
2018-Jul-04 12:30N 35°28' E 139°39'0 0.0
2018-Jul-04 12:00N 35°28' E 139°39'0 0.0
2018-Jul-04 11:30N 35°28' E 139°39'0 0.0
2018-Jul-04 11:00N 35°28' E 139°39'0 0.0
2018-Jul-04 10:30N 35°28' E 139°39'0 0.0
2018-Jul-04 10:00N 35°28' E 139°39'0 0.0
2018-Jul-04 09:30N 35°28' E 139°39'0 0.0
2018-Jul-04 09:00N 35°28' E 139°39'0 0.0
2018-Jul-04 08:30N 35°28' E 139°39'0 0.0
2018-Jul-04 08:00N 35°28' E 139°39'0 0.0
2018-Jul-04 07:29N 35°28' E 139°39'0 0.0
2018-Jul-04 07:00N 35°28' E 139°39'0 0.0
2018-Jul-04 06:30N 35°28' E 139°39'0 0.0
2018-Jul-04 06:00N 35°28' E 139°39'0 0.0
2018-Jul-04 05:29N 35°28' E 139°39'0 0.1
2018-Jul-04 05:01N 35°28' E 139°39'4 7.6
2018-Jul-04 04:30N 35°26' E 139°43'0 0.7
2018-Jul-04 04:00N 35°26' E 139°44'3 6.6
2018-Jul-04 03:30N 35°23' E 139°43'510.5
2018-Jul-04 02:59N 35°18' E 139°45'5 9.8
2018-Jul-04 02:30N 35°13' E 139°47'510.7
2018-Jul-04 02:01N 35°08' E 139°46'611.1
2018-Jul-04 01:30N 35°02' E 139°45'  
Track history (hours):
 
Tides and Currents Weather Stations Pressure Air Temp Water Temp Dewpoint Dewpoint Depression Visibility Wind Speed Wind Dir Waves Ship Positions

Satumimaru

Last reported at 2018-Jul-10 06:43 UTC. Time now 2018-Jul-18 22:14 UTC.
Position N 34°42' E 134°28'.
Warning: this ship's position is 8 days out of date.

Length 82 m; draft 3.8 m.

Type: Cargo ship. MMSI: 431007046.

Date/timePositionNaut miles runAvg speedWind from/ knotsBaromVisibWave heightAir tempDewpointWater temp
2018-Jul-10 06:43N 34°42' E 134°28'512.1
2018-Jul-10 06:17N 34°44' E 134°34'4 0.2
2018-Jul-09 15:15N 34°41' E 134°37'1211.8
2018-Jul-09 14:13N 34°31' E 134°29'  
2018-Jul-07 08:28N 34°22' E 134°23'510.8
2018-Jul-07 08:00N 34°20' E 134°28'2111.3
2018-Jul-07 06:08N 34°06' E 134°47'211.1
2018-Jul-07 05:58N 34°05' E 134°49'811.3
2018-Jul-07 05:14N 33°58' E 134°55'311.3
2018-Jul-07 05:00N 33°56' E 134°57'611.4
2018-Jul-07 04:31N 33°52' E 135°01'227 8.8
2018-Jul-06 02:46N 34°56' E 139°25'2 8.1
2018-Jul-06 02:30N 34°57' E 139°27'5 8.7
2018-Jul-06 01:59N 34°60' E 139°31'510.0
2018-Jul-06 01:30N 35°03' E 139°36'510.7
2018-Jul-06 01:00N 35°07' E 139°41'510.6
2018-Jul-06 00:30N 35°11' E 139°45'510.1
2018-Jul-06 00:01N 35°16' E 139°46'611.2
2018-Jul-05 23:30N 35°20' E 139°42'2 3.7
2018-Jul-05 22:59N 35°22' E 139°41'0 0.1
2018-Jul-05 22:23N 35°22' E 139°41'0 0.0
2018-Jul-05 21:56N 35°22' E 139°41'0 0.0
2018-Jul-05 21:23N 35°22' E 139°41'0 0.0
2018-Jul-05 20:59N 35°22' E 139°41'0 0.0
2018-Jul-05 20:29N 35°22' E 139°41'0 0.0
2018-Jul-05 19:59N 35°22' E 139°41'0 0.0
2018-Jul-05 19:29N 35°22' E 139°41'0 0.0
2018-Jul-05 18:59N 35°22' E 139°41'0 0.0
2018-Jul-05 18:29N 35°22' E 139°41'0 0.0
2018-Jul-05 17:59N 35°22' E 139°41'0 0.1
2018-Jul-05 17:29N 35°22' E 139°41'0 0.0
2018-Jul-05 16:59N 35°22' E 139°41'0 0.0
2018-Jul-05 16:29N 35°22' E 139°41'0 0.0
2018-Jul-05 15:59N 35°22' E 139°41'0 0.0
2018-Jul-05 15:29N 35°22' E 139°41'0 0.0
2018-Jul-05 14:59N 35°22' E 139°41'0 0.0
2018-Jul-05 13:59N 35°22' E 139°41'0 0.0
2018-Jul-05 13:29N 35°22' E 139°41'0 0.0
2018-Jul-05 12:59N 35°22' E 139°41'0 0.0
2018-Jul-05 12:29N 35°22' E 139°41'0 0.0
2018-Jul-05 11:59N 35°22' E 139°41'0 0.0
2018-Jul-05 11:29N 35°22' E 139°41'0 0.0
2018-Jul-05 10:59N 35°22' E 139°41'0 0.0
2018-Jul-05 10:29N 35°22' E 139°41'0 0.0
2018-Jul-05 09:59N 35°22' E 139°41'0 0.0
2018-Jul-05 09:26N 35°22' E 139°41'0 0.0
2018-Jul-05 08:59N 35°22' E 139°41'0 0.0
2018-Jul-05 08:29N 35°22' E 139°41'0 0.0
2018-Jul-05 07:59N 35°22' E 139°41'0 0.0
2018-Jul-05 07:29N 35°22' E 139°41'0 0.0
2018-Jul-05 06:59N 35°22' E 139°41'0 0.0
2018-Jul-05 06:29N 35°22' E 139°41'0 0.0
2018-Jul-05 05:56N 35°22' E 139°41'0 0.0
2018-Jul-05 05:29N 35°22' E 139°41'0 0.0
2018-Jul-05 04:59N 35°22' E 139°41'0 0.0
2018-Jul-05 04:29N 35°22' E 139°41'0 0.2
2018-Jul-05 03:59N 35°22' E 139°41'4 8.0
2018-Jul-05 03:30N 35°25' E 139°42'4 8.9
2018-Jul-05 03:00N 35°30' E 139°44'1 2.1
2018-Jul-05 02:28N 35°31' E 139°44'0 0.0
2018-Jul-05 01:58N 35°31' E 139°44'0 0.0
2018-Jul-05 01:25N 35°31' E 139°44'0 0.0
2018-Jul-05 00:55N 35°31' E 139°44'0 0.0
2018-Jul-05 00:16N 35°31' E 139°44'0 0.0
2018-Jul-04 23:43N 35°31' E 139°44'0 0.0
2018-Jul-04 23:28N 35°31' E 139°44'0 0.1
2018-Jul-04 22:55N 35°31' E 139°44'2 4.0
2018-Jul-04 22:30N 35°29' E 139°43'3 5.6
2018-Jul-04 22:00N 35°28' E 139°40'1 1.9
2018-Jul-04 21:30N 35°28' E 139°39'0 0.0
2018-Jul-04 21:00N 35°28' E 139°39'0 0.0
2018-Jul-04 20:30N 35°28' E 139°39'0 0.0
2018-Jul-04 20:00N 35°28' E 139°39'0 0.0
2018-Jul-04 19:27N 35°28' E 139°39'0 0.0
2018-Jul-04 19:00N 35°28' E 139°39'0 0.0
2018-Jul-04 18:30N 35°28' E 139°39'0 0.0
2018-Jul-04 17:57N 35°28' E 139°39'0 0.0
2018-Jul-04 17:30N 35°28' E 139°39'0 0.0
2018-Jul-04 17:00N 35°28' E 139°39'0 0.0
2018-Jul-04 16:30N 35°28' E 139°39'0 0.0
2018-Jul-04 16:00N 35°28' E 139°39'0 0.0
2018-Jul-04 15:30N 35°28' E 139°39'0 0.0
2018-Jul-04 15:00N 35°28' E 139°39'0 0.0
2018-Jul-04 14:30N 35°28' E 139°39'0 0.0
2018-Jul-04 14:00N 35°28' E 139°39'0 0.0
2018-Jul-04 13:30N 35°28' E 139°39'0 0.0
2018-Jul-04 13:00N 35°28' E 139°39'0 0.0
2018-Jul-04 12:30N 35°28' E 139°39'0 0.0
2018-Jul-04 12:00N 35°28' E 139°39'0 0.0
2018-Jul-04 11:30N 35°28' E 139°39'0 0.0
2018-Jul-04 11:00N 35°28' E 139°39'0 0.0
2018-Jul-04 10:30N 35°28' E 139°39'0 0.0
2018-Jul-04 10:00N 35°28' E 139°39'0 0.0
2018-Jul-04 09:30N 35°28' E 139°39'0 0.0
2018-Jul-04 09:00N 35°28' E 139°39'0 0.0
2018-Jul-04 08:30N 35°28' E 139°39'0 0.0
2018-Jul-04 08:00N 35°28' E 139°39'0 0.0
2018-Jul-04 07:29N 35°28' E 139°39'0 0.0
2018-Jul-04 07:00N 35°28' E 139°39'0 0.0
2018-Jul-04 06:30N 35°28' E 139°39'0 0.0
2018-Jul-04 06:00N 35°28' E 139°39'0 0.0
2018-Jul-04 05:29N 35°28' E 139°39'0 0.1
2018-Jul-04 05:01N 35°28' E 139°39'4 7.6
2018-Jul-04 04:30N 35°26' E 139°43'0 0.7
2018-Jul-04 04:00N 35°26' E 139°44'3 6.6
2018-Jul-04 03:30N 35°23' E 139°43'510.5
2018-Jul-04 02:59N 35°18' E 139°45'5 9.8
2018-Jul-04 02:30N 35°13' E 139°47'510.7
2018-Jul-04 02:01N 35°08' E 139°46'611.1
2018-Jul-04 01:30N 35°02' E 139°45'  

Dump ship's entire track history